createdAt,value
2023-07-18T00:08:27.588Z,15
2023-07-18T00:10:30.663Z,15
2023-07-18T00:12:36.828Z,15
2023-07-18T00:18:45.938Z,15
2023-07-18T00:20:48.958Z,15
2023-07-18T00:24:55.085Z,15
2023-07-18T00:27:01.204Z,15
2023-07-18T00:31:07.371Z,15
2023-07-18T00:33:10.375Z,14.9
2023-07-18T00:35:13.376Z,14.9
2023-07-18T00:37:16.429Z,14.9
2023-07-18T00:39:19.451Z,14.9
2023-07-18T00:41:25.609Z,14.8
2023-07-18T00:43:28.666Z,14.8
2023-07-18T00:50:40.975Z,14.8
2023-07-18T00:52:43.997Z,14.7
2023-07-18T00:54:50.182Z,14.8
2023-07-18T01:01:01.095Z,14.7
2023-07-18T01:03:04.181Z,14.8
2023-07-18T01:07:10.357Z,14.8
2023-07-18T01:11:19.840Z,14.6
2023-07-18T01:13:22.626Z,14.7
2023-07-18T01:15:25.777Z,14.6
2023-07-18T01:19:31.735Z,14.5
2023-07-18T01:25:44.055Z,14.5
2023-07-18T01:29:50.293Z,14.6
2023-07-18T01:31:53.301Z,14.5
2023-07-18T01:38:05.766Z,14.3
2023-07-18T01:43:15.027Z,14.2
2023-07-18T01:45:18.058Z,14.4
2023-07-18T01:47:21.104Z,14.3
2023-07-18T01:49:24.233Z,14.4
2023-07-18T01:51:30.613Z,14.3
2023-07-18T01:57:40.037Z,14.3
2023-07-18T01:59:43.154Z,14.3
2023-07-18T02:01:46.216Z,14.3
2023-07-18T02:05:55.713Z,14.3
2023-07-18T02:10:01.903Z,14.3
2023-07-18T02:14:08.196Z,14.3
2023-07-18T02:18:14.483Z,14.3
2023-07-18T02:22:23.999Z,14.3
2023-07-18T02:32:39.766Z,14
2023-07-18T02:34:46.069Z,14.1
2023-07-18T02:36:49.210Z,14.1
2023-07-18T02:38:52.341Z,14.1
2023-07-18T02:45:28.397Z,14
2023-07-18T02:47:34.826Z,14.1
2023-07-18T02:49:37.921Z,14.1
2023-07-18T02:51:41.059Z,14.1
2023-07-18T02:53:44.175Z,14
2023-07-18T02:55:47.339Z,14
2023-07-18T03:06:06.235Z,14.1
2023-07-18T03:10:12.549Z,14.1
2023-07-18T03:20:31.446Z,14.3
2023-07-18T03:26:40.866Z,14.2
2023-07-18T03:35:59.828Z,14.1
2023-07-18T03:38:02.975Z,14.1
2023-07-18T03:40:06.129Z,14.1
2023-07-18T03:42:09.270Z,14.1
2023-07-18T03:44:15.633Z,14.1
2023-07-18T03:46:18.806Z,14.1
2023-07-18T03:48:21.985Z,14.1
2023-07-18T03:50:25.045Z,14.1
2023-07-18T03:52:28.177Z,14.1
2023-07-18T03:54:31.321Z,14.1
2023-07-18T03:56:34.468Z,14.1
2023-07-18T03:58:40.839Z,14.2
2023-07-18T04:00:43.997Z,14.2
2023-07-18T04:02:47.592Z,14.3
2023-07-18T04:04:50.254Z,14.3
2023-07-18T04:06:53.416Z,14.4
2023-07-18T04:10:59.686Z,14.4
2023-07-18T04:13:06.056Z,14.3
2023-07-18T04:15:09.184Z,14.4
2023-07-18T04:17:12.305Z,14.3
2023-07-18T04:21:18.850Z,14.4
2023-07-18T04:25:24.894Z,14.4
2023-07-18T04:27:31.227Z,14.4
2023-07-18T04:29:34.354Z,14.4
2023-07-18T04:32:40.702Z,14.5
2023-07-18T04:34:43.834Z,14.6
2023-07-18T04:55:21.670Z,15.1
2023-07-18T04:57:24.799Z,15.2
2023-07-18T04:59:27.960Z,15.2
2023-07-18T05:01:31.158Z,15.5
2023-07-18T05:05:37.277Z,15.7
2023-07-18T05:11:49.590Z,16.1
2023-07-18T05:15:55.702Z,16.4
2023-07-18T05:17:58.760Z,16.5
2023-07-18T05:20:01.706Z,16.4
2023-07-18T05:22:04.737Z,16.6
2023-07-18T05:29:20.051Z,16.9
2023-07-18T05:33:26.114Z,17.1
2023-07-18T05:35:29.113Z,17.1
2023-07-18T05:37:35.268Z,17.2
2023-07-18T05:39:38.274Z,17.2
2023-07-18T05:41:41.322Z,17.5
2023-07-18T05:43:44.335Z,17.4
2023-07-18T05:45:47.360Z,17.7
2023-07-18T05:47:50.399Z,17.8
2023-07-18T05:49:53.380Z,18
2023-07-18T05:51:59.524Z,17.9
2023-07-18T05:54:02.548Z,17.8
2023-07-18T05:56:05.547Z,18.2
2023-07-18T05:58:08.585Z,18.2
2023-07-18T06:00:11.632Z,18.2
2023-07-18T06:02:14.581Z,18
2023-07-18T06:04:17.733Z,18.2
2023-07-18T06:06:23.728Z,18.6
2023-07-18T06:10:29.724Z,18.6
2023-07-18T06:12:32.730Z,18.5
2023-07-18T06:14:35.718Z,18.5
2023-07-18T06:16:38.770Z,18.9
2023-07-18T06:18:41.732Z,19.2
2023-07-18T06:20:47.856Z,18.9
2023-07-18T06:22:50.961Z,18.7
2023-07-18T06:24:53.831Z,18.6
2023-07-18T06:27:23.180Z,18.8
2023-07-18T06:29:26.155Z,18.9
2023-07-18T06:31:29.213Z,18.9
2023-07-18T06:33:35.283Z,18.9
2023-07-18T06:35:38.236Z,19.1
2023-07-18T06:37:41.271Z,19.2
2023-07-18T06:39:44.209Z,19.5
2023-07-18T06:41:47.188Z,19.3
2023-07-18T06:50:02.235Z,19.7
2023-07-18T06:52:05.190Z,20.2
2023-07-18T06:54:08.177Z,20.1
2023-07-18T06:56:12.704Z,20.3
2023-07-18T06:58:15.634Z,19.9
2023-07-18T07:00:18.601Z,20.3
2023-07-18T07:02:24.729Z,20.6
2023-07-18T07:04:27.642Z,20.6
2023-07-18T07:06:30.592Z,20.7
2023-07-18T07:08:33.576Z,21.1
2023-07-18T07:10:36.522Z,21.4
2023-07-18T07:14:42.415Z,21.6
2023-07-18T07:16:48.555Z,22
2023-07-18T07:18:51.426Z,22
2023-07-18T07:20:54.356Z,21.8
2023-07-18T07:21:57.365Z,22.3
2023-07-18T07:24:00.291Z,22.5
2023-07-18T07:26:03.241Z,22.9
2023-07-18T07:28:06.281Z,22.6
2023-07-18T07:30:12.215Z,22.1
2023-07-18T07:32:15.162Z,21.8
2023-07-18T07:34:18.034Z,22
2023-07-18T07:36:20.926Z,22.5
2023-07-18T07:38:23.841Z,22.6
2023-07-18T07:40:26.740Z,22.4
2023-07-18T07:42:29.636Z,22.8
2023-07-18T07:44:35.697Z,23.5
2023-07-18T07:46:38.642Z,23.6
2023-07-18T07:48:41.467Z,23.3
2023-07-18T08:01:01.869Z,26
2023-07-18T08:03:04.727Z,26.1
2023-07-18T08:13:24.549Z,26.8
2023-07-18T08:15:24.971Z,27.2
2023-07-18T08:17:27.907Z,26.8
2023-07-18T08:18:30.840Z,26.1
2023-07-18T08:22:36.571Z,27.3
2023-07-18T08:24:39.506Z,27.2
2023-07-18T08:28:48.168Z,27.5
2023-07-18T08:30:51.002Z,27.8
2023-07-18T08:32:53.829Z,28.1
2023-07-18T08:34:56.646Z,28.1
2023-07-18T08:43:11.069Z,27.9
2023-07-18T08:47:16.696Z,27.7
2023-07-18T08:51:22.577Z,28.6
2023-07-18T08:53:25.166Z,29.1
2023-07-18T08:55:31.216Z,28.9
2023-07-18T08:57:33.926Z,28.6
2023-07-18T08:59:36.734Z,29
2023-07-18T09:09:53.792Z,28.6
2023-07-18T09:11:56.610Z,27.6
2023-07-18T09:13:59.359Z,27.5
2023-07-18T09:15:02.328Z,26.9
2023-07-18T09:17:05.353Z,26.8
2023-07-18T09:19:07.863Z,26.9
2023-07-18T09:21:10.632Z,27.1
2023-07-18T09:23:16.581Z,27.2
2023-07-18T09:25:19.293Z,27.1
2023-07-18T09:27:22.045Z,26.9
2023-07-18T09:39:41.717Z,25.8
2023-07-18T09:47:52.788Z,26
2023-07-18T09:54:05.893Z,24.8
2023-07-18T10:08:26.600Z,26
2023-07-18T10:19:09.659Z,26.5
2023-07-18T10:21:12.420Z,26.2
2023-07-18T10:23:15.264Z,25.9
2023-07-18T10:25:17.901Z,25.7
2023-07-18T11:02:16.803Z,24.7
2023-07-18T11:07:25.295Z,25.4
2023-07-18T11:09:28.052Z,25.9
2023-07-18T11:11:30.840Z,26.4
2023-07-18T11:17:42.290Z,27.3
2023-07-18T11:21:47.728Z,26.5
2023-07-18T11:23:50.356Z,26.9
2023-07-18T11:25:52.990Z,26.8
2023-07-18T11:27:55.609Z,26.8
2023-07-18T11:30:01.317Z,26.6
2023-07-18T11:32:03.947Z,26.9
2023-07-18T11:42:16.787Z,26.6
2023-07-18T11:44:22.409Z,26.7
2023-07-18T11:52:32.714Z,26.6
2023-07-18T11:54:35.285Z,26.3
2023-07-18T11:56:37.854Z,27.1
2023-07-18T11:58:43.461Z,26.9
2023-07-18T12:00:46.057Z,25.7
2023-07-18T12:03:51.422Z,25.5
2023-07-18T12:09:58.993Z,25.7
2023-07-18T12:14:07.218Z,26.1
2023-07-18T12:20:15.124Z,25.6
2023-07-18T12:24:20.537Z,25
2023-07-18T12:26:26.397Z,24.6
2023-07-18T12:28:29.108Z,24.7
2023-07-18T12:30:31.926Z,25.6
2023-07-18T12:32:34.659Z,26.3
2023-07-18T12:34:37.264Z,26.9
2023-07-18T12:40:48.378Z,26.8
2023-07-18T12:46:56.085Z,26.9
2023-07-18T12:51:02.732Z,27.5
2023-07-18T12:53:05.244Z,27.2
2023-07-18T12:55:10.810Z,26.9
2023-07-18T12:57:13.340Z,26.7
2023-07-18T12:59:15.849Z,27.4
2023-07-18T13:08:31.616Z,27.6
2023-07-18T13:14:39.034Z,27.4
2023-07-18T13:16:41.540Z,27.8
2023-07-18T13:20:46.475Z,28.2
2023-07-18T13:22:52.145Z,27.2
2023-07-18T13:24:54.469Z,27
2023-07-18T13:35:06.870Z,27.6
2023-07-18T13:39:15.356Z,28.1
2023-07-18T13:41:17.342Z,27.7
2023-07-18T13:43:19.808Z,27.6
2023-07-18T13:45:22.403Z,27.3
2023-07-18T13:47:24.713Z,26.8
2023-07-18T13:49:48.982Z,26.1
2023-07-18T13:51:32.581Z,25.5
2023-07-18T13:53:35.099Z,25.5
2023-07-18T13:55:37.557Z,25.2
2023-07-18T13:58:06.221Z,25.6
2023-07-18T14:22:46.045Z,28.1
2023-07-18T14:24:46.670Z,26.8
2023-07-18T14:28:51.834Z,26
2023-07-18T14:30:54.385Z,26
2023-07-18T14:35:02.864Z,26.3
2023-07-18T14:37:05.560Z,26.2
2023-07-18T14:41:10.943Z,26.2
2023-07-18T14:45:16.396Z,25.8
2023-07-18T14:47:22.291Z,25.8
2023-07-18T14:49:25.026Z,25.9
2023-07-18T15:00:45.032Z,26.9
2023-07-18T15:04:50.610Z,27.3
2023-07-18T15:06:53.384Z,28.1
2023-07-18T15:08:56.166Z,28.7
2023-07-18T15:37:39.298Z,26.9
2023-07-18T15:39:41.955Z,28.2
2023-07-18T15:45:53.148Z,26.1
2023-07-18T15:47:55.831Z,25.7
2023-07-18T15:48:58.711Z,25.6
2023-07-18T15:51:01.422Z,25.6
2023-07-18T15:53:04.137Z,25.7
2023-07-18T15:55:06.849Z,25
2023-07-18T15:57:12.757Z,24.8
2023-07-18T15:59:15.504Z,24.9
2023-07-18T16:01:18.275Z,25.1
2023-07-18T16:03:21.122Z,25
2023-07-18T16:05:23.829Z,24.9
2023-07-18T16:07:26.622Z,24.8
2023-07-18T16:09:29.642Z,24.9
2023-07-18T16:11:35.384Z,24.7
2023-07-18T16:13:38.195Z,24.9
2023-07-18T16:17:43.880Z,26.7
2023-07-18T16:19:46.692Z,27.1
2023-07-18T16:21:49.530Z,27.6
2023-07-18T16:25:58.324Z,25.6
2023-07-18T16:28:01.152Z,25.5
2023-07-18T16:30:03.966Z,25.8
2023-07-18T16:32:06.809Z,25.9
2023-07-18T16:34:09.591Z,26
2023-07-18T16:36:12.377Z,25.7
2023-07-18T16:38:15.199Z,25.8
2023-07-18T16:40:21.308Z,25.9
2023-07-18T16:42:24.810Z,25.9
2023-07-18T16:44:26.821Z,25.3
2023-07-18T16:45:29.823Z,25.3
2023-07-18T16:49:35.480Z,25.5
2023-07-18T16:55:47.127Z,25.6
2023-07-18T16:57:49.989Z,25.4
2023-07-18T17:06:01.435Z,25.6
2023-07-18T17:08:07.384Z,24.8
2023-07-18T17:12:13.125Z,24.5
2023-07-18T17:18:21.734Z,24.5
2023-07-18T17:20:24.591Z,24.3
2023-07-18T17:22:30.613Z,23.9
2023-07-18T17:24:33.497Z,23.9
2023-07-18T17:26:36.382Z,23.9
2023-07-18T17:28:39.249Z,23.9
2023-07-18T17:30:42.248Z,24.1
2023-07-18T17:32:45.093Z,24
2023-07-18T17:34:47.932Z,24.1
2023-07-18T17:40:59.746Z,23.9
2023-07-18T17:55:43.297Z,23.6
2023-07-18T17:57:46.203Z,23.5
2023-07-18T17:59:49.116Z,23.4
2023-07-18T18:06:01.001Z,23.2
2023-07-18T18:08:03.929Z,23.3
2023-07-18T18:12:09.755Z,23.4
2023-07-18T18:16:15.644Z,23.1
2023-07-18T18:18:21.670Z,23
2023-07-18T18:22:27.538Z,23
2023-07-18T18:26:33.369Z,22.6
2023-07-18T18:28:36.308Z,22.7
2023-07-18T18:32:45.342Z,22.7
2023-07-18T18:35:05.023Z,22.6
2023-07-18T18:36:51.193Z,22.7
2023-07-18T18:37:54.213Z,22.7
2023-07-18T18:39:57.155Z,22.5
2023-07-18T18:58:28.302Z,22.1
2023-07-18T19:00:34.396Z,21.8
2023-07-18T19:02:37.446Z,21.8
2023-07-18T19:04:40.268Z,22
2023-07-18T19:06:43.225Z,21.9
2023-07-18T19:08:46.178Z,21.8
2023-07-18T19:11:05.184Z,21.9
2023-07-18T19:14:58.450Z,21.7
2023-07-18T19:17:01.225Z,21.5
2023-07-18T19:19:04.119Z,21.6
2023-07-18T19:21:07.098Z,21.4
2023-07-18T19:25:13.020Z,21.5
2023-07-18T19:27:16.103Z,21.6
2023-07-18T19:31:25.097Z,21.3
2023-07-18T19:34:31.099Z,21.3
2023-07-18T19:36:34.068Z,21.3
2023-07-18T19:38:40.203Z,21.2
2023-07-18T19:40:40.010Z,21.2
2023-07-18T19:42:46.124Z,21
2023-07-18T19:44:49.065Z,21
2023-07-18T19:46:52.052Z,21
2023-07-18T19:48:55.045Z,20.9
2023-07-18T19:50:57.988Z,21
2023-07-18T19:53:00.967Z,20.8
2023-07-18T19:55:03.972Z,20.7
2023-07-18T19:57:10.052Z,20.6
2023-07-18T20:03:19.102Z,20.8
2023-07-18T20:05:21.993Z,20.7
2023-07-18T20:07:24.961Z,20.6
2023-07-18T20:09:27.933Z,20.6
2023-07-18T20:13:37.028Z,20.6
2023-07-18T20:15:39.988Z,20.7
2023-07-18T20:17:43.027Z,20.6
2023-07-18T20:19:46.008Z,20.6
2023-07-18T20:25:58.016Z,20.2
2023-07-18T20:28:00.980Z,20.2
2023-07-18T20:30:03.933Z,20.2
2023-07-18T20:33:10.079Z,20.3
2023-07-18T20:35:12.901Z,20.3
2023-07-18T20:37:15.900Z,20.3
2023-07-18T20:49:36.850Z,20.3
2023-07-18T20:53:45.910Z,20.1
2023-07-18T20:55:48.856Z,20.1
2023-07-18T21:06:03.702Z,20.1
2023-07-18T21:10:12.751Z,20
2023-07-18T21:12:15.746Z,19.9
2023-07-18T21:20:27.612Z,19.8
2023-07-18T21:22:33.738Z,19.7
2023-07-18T21:24:36.693Z,19.7
2023-07-18T21:26:39.641Z,19.7
2023-07-18T21:47:39.011Z,19.4
2023-07-18T21:49:45.015Z,19.1
2023-07-18T21:55:53.990Z,19.1
2023-07-18T21:57:57.003Z,19.1
2023-07-18T22:10:18.140Z,19.1
2023-07-18T22:12:21.113Z,19.1
2023-07-18T22:14:24.097Z,19.1
2023-07-18T22:20:36.270Z,18.9
2023-07-18T22:22:39.315Z,18.8
2023-07-18T22:23:42.331Z,18.9
2023-07-18T22:29:51.677Z,18.8
2023-07-18T22:31:57.804Z,18.8
2023-07-18T22:34:00.780Z,18.6
2023-07-18T22:36:03.820Z,18.7
2023-07-18T22:38:06.874Z,18.6
2023-07-18T22:40:09.853Z,18.7
2023-07-18T22:42:12.859Z,18.8
2023-07-18T22:44:15.869Z,18.6
2023-07-18T22:46:22.035Z,18.7
2023-07-18T22:48:25.045Z,18.7
2023-07-18T22:50:28.060Z,18.8
2023-07-18T22:52:31.068Z,18.8
2023-07-18T22:58:40.137Z,18.8
2023-07-18T23:04:52.307Z,18.7
2023-07-18T23:06:55.270Z,18.9
2023-07-18T23:11:01.311Z,18.8
2023-07-18T23:15:10.449Z,18.6
2023-07-18T23:17:13.495Z,18.7
2023-07-18T23:20:19.550Z,18.6
2023-07-18T23:22:22.576Z,18.6
2023-07-18T23:24:25.616Z,18.4
2023-07-18T23:26:28.607Z,18.5
2023-07-18T23:28:34.714Z,18.4
2023-07-18T23:30:37.811Z,18.5
2023-07-18T23:32:40.777Z,18.6
2023-07-18T23:34:43.739Z,18.6
2023-07-18T23:36:46.786Z,18.6
2023-07-18T23:38:49.775Z,18.6
2023-07-18T23:40:52.793Z,18.4
2023-07-18T23:42:58.919Z,18.4
2023-07-18T23:45:01.912Z,18.4
2023-07-18T23:47:04.961Z,18.4
2023-07-18T23:49:07.984Z,18.3
2023-07-18T23:51:10.981Z,18.3
2023-07-18T23:53:13.995Z,18.3
2023-07-18T23:55:17.006Z,18.3
2023-07-18T23:57:23.152Z,18.3
2023-07-18T23:59:26.186Z,18.3
